Time;durP1;ratioP1;P1;durP2;ratioP2;P2;SDS_P1;SDS_P2;PMS_P1;PMS_P2;Temp;Humidity;BMP_temperature;BMP_pressure;BME280_temperature;BME280_humidity;BME280_pressure;Samples;Min_cycle;Max_cycle;Signal;HPM_P1;HPM_P2
2021/04/17 00:00:31;;;;;;;22.63;11.20;;;;;;;0.99;100.00;96767.22;5056521;28;20233;-72
2021/04/17 00:02:57;;;;;;;28.87;11.73;;;;;;;0.93;100.00;96762.44;5055848;28;21106;-70
2021/04/17 00:05:23;;;;;;;20.87;10.40;;;;;;;0.79;100.00;96760.81;5055410;28;20208;-70
2021/04/17 00:07:49;;;;;;;21.67;10.23;;;;;;;0.70;100.00;96758.88;5056062;28;20644;-72
2021/04/17 00:10:16;;;;;;;17.87;9.13;;;;;;;0.57;99.02;96762.38;5055796;28;20211;-73
2021/04/17 00:12:43;;;;;;;18.87;9.33;;;;;;;0.61;98.39;96753.47;5056311;28;20208;-71
2021/04/17 00:15:10;;;;;;;18.87;9.27;;;;;;;0.66;98.51;96753.97;5055893;28;20214;-72
2021/04/17 00:17:36;;;;;;;19.00;9.37;;;;;;;0.63;99.25;96754.19;5055385;28;20223;-71
2021/04/17 00:20:04;;;;;;;21.30;10.77;;;;;;;0.64;99.75;96751.50;5056353;28;20211;-69
2021/04/17 00:22:30;;;;;;;18.10;9.20;;;;;;;0.24;98.14;96756.06;5056350;28;20688;-70
2021/04/17 00:24:56;;;;;;;26.00;10.53;;;;;;;0.36;98.29;96753.47;5056114;28;20591;-69
2021/04/17 00:27:22;;;;;;;20.97;10.23;;;;;;;0.28;100.00;96750.56;5054670;28;20225;-72
2021/04/17 00:29:49;;;;;;;21.67;10.70;;;;;;;0.37;100.00;96747.38;5055853;28;20208;-69
2021/04/17 00:32:15;;;;;;;22.90;10.93;;;;;;;0.23;100.00;96749.22;5055994;28;20562;-71
2021/04/17 00:34:41;;;;;;;23.17;10.97;;;;;;;0.17;100.00;96747.88;5055952;28;20209;-70
2021/04/17 00:37:08;;;;;;;24.20;11.03;;;;;;;0.11;100.00;96750.03;5055540;28;20222;-72
2021/04/17 00:39:34;;;;;;;26.13;11.47;;;;;;;0.26;100.00;96749.03;5055676;28;20672;-70
2021/04/17 00:42:00;;;;;;;23.90;11.33;;;;;;;0.27;100.00;96735.97;5055675;28;20337;-69
2021/04/17 00:44:28;;;;;;;27.87;12.47;;;;;;;0.23;100.00;96734.50;5055776;28;20954;-69
2021/04/17 00:46:55;;;;;;;31.27;12.77;;;;;;;0.27;100.00;96729.97;5055719;28;20720;-69
2021/04/17 00:49:21;;;;;;;27.03;11.60;;;;;;;0.35;100.00;96731.06;5055501;28;20206;-71
2021/04/17 00:51:47;;;;;;;23.27;11.70;;;;;;;0.41;100.00;96722.91;5056147;28;20255;-69
2021/04/17 00:54:13;;;;;;;24.93;11.63;;;;;;;0.37;100.00;96724.03;5056183;28;20208;-69
2021/04/17 00:56:39;;;;;;;23.80;11.47;;;;;;;0.43;99.88;96723.59;5055578;28;20220;-70
2021/04/17 00:59:05;;;;;;;24.30;10.93;;;;;;;0.39;98.33;96719.56;5055650;28;20204;-69
2021/04/17 01:01:31;;;;;;;22.63;10.00;;;;;;;0.28;98.07;96729.00;5055933;28;21184;-73
2021/04/17 01:04:05;;;;;;;23.23;11.10;;;;;;;0.22;98.58;96721.66;5056160;28;20228;-69
2021/04/17 01:06:39;;;;;;;23.40;11.20;;;;;;;0.26;98.69;96717.94;5054883;28;20222;-73
2021/04/17 01:09:10;;;;;;;26.33;11.17;;;;;;;0.31;97.33;96714.09;5055399;28;20203;-69
2021/04/17 01:11:42;;;;;;;23.10;10.87;;;;;;;-0.02;96.18;96721.53;5055448;28;20208;-70
2021/04/17 01:14:08;;;;;;;23.67;10.70;;;;;;;0.02;97.64;96715.19;5055381;28;20212;-72
2021/04/17 01:16:35;;;;;;;25.17;10.60;;;;;;;-0.15;98.13;96716.41;5055583;28;20221;-71
2021/04/17 01:19:07;;;;;;;24.97;10.93;;;;;;;-0.06;98.54;96715.81;5059245;28;20205;-71
2021/04/17 01:21:34;;;;;;;25.33;11.50;;;;;;;-0.02;100.00;96721.53;5059594;28;20224;-69
2021/04/17 01:24:07;;;;;;;22.87;10.50;;;;;;;-0.02;100.00;96718.94;5058813;28;20211;-73
2021/04/17 01:26:34;;;;;;;24.23;10.77;;;;;;;0.03;99.91;96721.22;5059029;28;20226;-70
2021/04/17 01:29:00;;;;;;;24.90;11.90;;;;;;;0.13;100.00;96710.13;5058686;28;20209;-74
2021/04/17 01:31:30;;;;;;;27.27;11.83;;;;;;;0.23;100.00;96712.94;5059461;28;20201;-71
2021/04/17 01:33:57;;;;;;;23.53;11.47;;;;;;;0.26;98.46;96713.56;5059503;28;20210;-69
2021/04/17 01:36:25;;;;;;;24.50;11.53;;;;;;;0.17;99.37;96708.19;5058162;28;20243;-71
2021/04/17 01:38:55;;;;;;;27.20;11.80;;;;;;;0.03;100.00;96714.28;5058537;28;20687;-72
2021/04/17 01:41:25;;;;;;;27.10;11.83;;;;;;;0.04;100.00;96708.16;5058600;28;20717;-71
2021/04/17 01:43:56;;;;;;;24.37;11.03;;;;;;;0.16;97.03;96707.34;5059424;28;20200;-71
2021/04/17 01:46:24;;;;;;;26.13;11.27;;;;;;;0.11;98.27;96699.03;5057160;28;20235;-73
2021/04/17 01:48:55;;;;;;;29.13;12.97;;;;;;;0.04;100.00;96702.16;5059112;28;20219;-69
2021/04/17 01:51:23;;;;;;;27.70;12.20;;;;;;;0.16;100.00;96702.16;5058162;28;20212;-71
2021/04/17 01:53:51;;;;;;;26.40;11.60;;;;;;;0.07;99.05;96695.00;5059035;28;20208;-69
2021/04/17 01:56:19;;;;;;;26.83;11.63;;;;;;;0.14;98.33;96692.81;5058020;28;20290;-69
2021/04/17 01:58:48;;;;;;;27.27;12.40;;;;;;;0.04;100.00;96691.81;5059068;28;20609;-70
2021/04/17 02:01:18;;;;;;;30.27;12.10;;;;;;;-0.26;100.00;96696.41;5057921;28;20233;-73
2021/04/17 02:03:44;;;;;;;24.50;11.80;;;;;;;-0.20;99.17;96692.63;5058381;28;20669;-73
2021/04/17 02:06:10;;;;;;;26.57;12.50;;;;;;;-0.14;99.37;96692.19;5058530;28;20278;-73
2021/04/17 02:08:36;;;;;;;30.63;12.27;;;;;;;-0.07;100.00;96680.50;5058154;28;20208;-71
2021/04/17 02:11:04;;;;;;;27.97;11.87;;;;;;;-0.08;100.00;96694.38;5057392;28;20208;-73
2021/04/17 02:13:31;;;;;;;28.50;12.90;;;;;;;-0.05;100.00;96686.41;5058791;28;20204;-73
2021/04/17 02:15:58;;;;;;;28.73;12.70;;;;;;;0.01;99.96;96692.00;5057866;28;20211;-69
2021/04/17 02:18:29;;;;;;;25.43;11.73;;;;;;;-0.12;99.96;96695.53;5057719;28;20200;-73
2021/04/17 02:21:03;;;;;;;30.67;12.97;;;;;;;-0.24;100.00;96696.31;5058464;28;20278;-69
2021/04/17 02:23:30;;;;;;;24.27;11.40;;;;;;;-0.30;100.00;96694.16;5058518;28;20199;-71
2021/04/17 02:25:57;;;;;;;26.40;12.20;;;;;;;-0.31;100.00;96695.06;5057032;28;20208;-73
2021/04/17 02:28:23;;;;;;;27.77;12.37;;;;;;;-0.23;98.49;96698.81;5057517;28;20220;-73
2021/04/17 02:30:49;;;;;;;28.70;12.93;;;;;;;-0.22;99.80;96690.09;5058068;28;20200;-72
2021/04/17 02:33:15;;;;;;;27.63;12.53;;;;;;;-0.19;100.00;96689.06;5057632;28;20212;-72
2021/04/17 02:35:42;;;;;;;25.13;11.80;;;;;;;-0.19;100.00;96695.09;5057034;28;20196;-69
2021/04/17 02:38:08;;;;;;;29.60;12.20;;;;;;;-0.24;100.00;96691.13;5058044;28;20247;-69
2021/04/17 02:40:34;;;;;;;28.67;12.50;;;;;;;-0.23;100.00;96703.16;5056981;28;20671;-69
2021/04/17 02:43:00;;;;;;;26.10;12.20;;;;;;;-0.35;100.00;96696.19;5057417;28;20208;-71
2021/04/17 02:45:26;;;;;;;28.27;12.47;;;;;;;-0.29;100.00;96695.81;5057256;28;20623;-69
2021/04/17 02:47:52;;;;;;;32.50;13.33;;;;;;;-0.22;100.00;96691.88;5057828;28;20236;-70
2021/04/17 02:50:19;;;;;;;31.20;12.33;;;;;;;-0.20;100.00;96683.06;5057317;28;20288;-70
2021/04/17 02:52:46;;;;;;;30.07;13.07;;;;;;;-0.26;100.00;96682.66;5057401;28;20278;-73
2021/04/17 02:55:12;;;;;;;30.67;13.30;;;;;;;-0.30;100.00;96678.63;5055806;28;20201;-73
2021/04/17 02:57:38;;;;;;;29.23;13.07;;;;;;;-0.35;100.00;96673.72;5056684;28;20290;-69
2021/04/17 03:00:06;;;;;;;29.97;12.13;;;;;;;-0.24;99.21;96686.81;5058217;28;20277;-69
2021/04/17 03:02:33;;;;;;;27.57;12.37;;;;;;;-0.18;99.04;96678.59;5057528;28;20220;-72
2021/04/17 03:04:59;;;;;;;26.90;12.50;;;;;;;-0.16;99.03;96678.53;5057413;28;20231;-71
2021/04/17 03:07:25;;;;;;;28.47;12.63;;;;;;;-0.26;98.98;96674.88;5057251;28;20232;-74
2021/04/17 03:09:52;;;;;;;28.57;12.20;;;;;;;-0.29;99.90;96667.34;5057088;28;20757;-70
2021/04/17 03:12:18;;;;;;;28.37;12.23;;;;;;;-0.22;100.00;96668.56;5056690;28;20680;-73
2021/04/17 03:14:44;;;;;;;28.80;11.73;;;;;;;-0.31;98.95;96674.34;5057105;28;20197;-72
2021/04/17 03:17:11;;;;;;;26.03;11.43;;;;;;;-0.37;97.02;96675.59;5057257;28;20234;-70
2021/04/17 03:19:37;;;;;;;26.17;11.27;;;;;;;-0.31;98.77;96679.53;5056284;28;20237;-69
2021/04/17 03:22:04;;;;;;;29.90;12.97;;;;;;;-0.38;100.00;96673.94;5057037;28;20228;-72
2021/04/17 03:24:30;;;;;;;31.57;12.50;;;;;;;-0.30;100.00;96669.06;5056842;28;20516;-71
2021/04/17 03:26:57;;;;;;;26.03;12.07;;;;;;;-0.51;99.52;96672.25;5056468;28;20934;-69
2021/04/17 03:29:23;;;;;;;27.17;12.13;;;;;;;-0.54;98.82;96675.03;5056780;28;20218;-69
2021/04/17 03:31:49;;;;;;;29.87;12.17;;;;;;;-0.55;99.35;96670.78;5056832;28;20204;-70
2021/04/17 03:34:15;;;;;;;26.37;11.93;;;;;;;-0.50;99.80;96663.56;5056614;28;20213;-71
2021/04/17 03:36:41;;;;;;;26.13;12.03;;;;;;;-0.47;99.86;96668.50;5055349;28;20293;-72
2021/04/17 03:39:07;;;;;;;30.97;12.67;;;;;;;-0.44;99.68;96673.50;5056285;28;20242;-70
2021/04/17 03:41:33;;;;;;;31.63;12.90;;;;;;;-0.57;100.00;96683.00;5055985;28;20235;-73
2021/04/17 03:44:00;;;;;;;30.97;13.13;;;;;;;-0.45;100.00;96677.03;5056897;28;20208;-70
2021/04/17 03:46:26;;;;;;;31.13;13.10;;;;;;;-0.32;100.00;96676.13;5055634;28;20255;-71
2021/04/17 03:48:52;;;;;;;32.47;13.00;;;;;;;-0.30;100.00;96676.03;5056908;28;20208;-71
2021/04/17 03:51:18;;;;;;;30.03;13.07;;;;;;;-0.17;100.00;96669.91;5057335;28;20218;-70
2021/04/17 03:53:44;;;;;;;32.80;13.90;;;;;;;-0.28;100.00;96667.22;5056589;28;20209;-74
2021/04/17 03:56:10;;;;;;;30.00;13.27;;;;;;;-0.24;100.00;96667.84;5055723;28;20289;-72
2021/04/17 03:58:36;;;;;;;29.30;12.93;;;;;;;-0.18;100.00;96676.03;5056514;28;20773;-71
2021/04/17 04:01:03;;;;;;;32.10;13.07;;;;;;;-0.17;100.00;96676.88;5056709;28;20234;-75
2021/04/17 04:03:29;;;;;;;32.00;13.40;;;;;;;-0.13;100.00;96667.97;5056580;28;20200;-72
2021/04/17 04:05:55;;;;;;;33.83;14.57;;;;;;;-0.09;100.00;96674.59;5055812;28;20242;-72
2021/04/17 04:08:21;;;;;;;32.97;13.63;;;;;;;-0.06;100.00;96676.97;5055745;28;20877;-74
2021/04/17 04:10:47;;;;;;;33.20;14.10;;;;;;;-0.04;100.00;96675.09;5055789;28;20216;-70
2021/04/17 04:13:13;;;;;;;34.70;14.77;;;;;;;-0.02;100.00;96681.03;5056141;28;20205;-70
2021/04/17 04:15:39;;;;;;;32.50;13.97;;;;;;;0.04;100.00;96679.66;5055688;28;20764;-74
2021/04/17 04:18:06;;;;;;;30.47;12.70;;;;;;;-0.07;100.00;96683.09;5056223;28;20224;-71
2021/04/17 04:20:32;;;;;;;30.67;12.70;;;;;;;-0.08;100.00;96686.59;5055993;28;20205;-71
2021/04/17 04:22:59;;;;;;;31.30;13.87;;;;;;;0.02;100.00;96685.88;5056523;28;20205;-70
2021/04/17 04:25:25;;;;;;;32.57;13.80;;;;;;;-0.05;100.00;96686.41;5055337;28;20204;-71
2021/04/17 04:27:51;;;;;;;31.63;13.33;;;;;;;0.01;100.00;96687.66;5056890;28;20228;-75
2021/04/17 04:30:17;;;;;;;35.33;14.57;;;;;;;0.17;100.00;96685.69;5056068;28;20215;-70
2021/04/17 04:32:44;;;;;;;34.03;14.87;;;;;;;0.31;100.00;96677.81;5055680;28;20200;-69
2021/04/17 04:35:12;;;;;;;35.53;15.10;;;;;;;0.38;100.00;96681.66;5055602;28;20212;-72
2021/04/17 04:37:38;;;;;;;39.03;15.63;;;;;;;0.43;100.00;96684.72;5057387;28;20774;-70
2021/04/17 04:40:05;;;;;;;32.50;14.30;;;;;;;0.39;100.00;96683.28;5055741;28;20199;-71
2021/04/17 04:42:32;;;;;;;36.23;15.37;;;;;;;0.39;100.00;96678.09;5056334;28;20224;-71
2021/04/17 04:44:57;;;;;;;33.70;14.23;;;;;;;0.37;100.00;96679.13;5055960;28;20697;-71
2021/04/17 04:47:23;;;;;;;35.83;15.13;;;;;;;0.42;100.00;96682.25;5055312;28;20226;-70
2021/04/17 04:49:50;;;;;;;36.73;15.33;;;;;;;0.43;100.00;96681.31;5055281;28;20204;-74
2021/04/17 04:52:17;;;;;;;38.23;15.40;;;;;;;0.41;100.00;96690.94;5058483;28;20250;-71
2021/04/17 04:54:43;;;;;;;33.67;14.53;;;;;;;0.46;100.00;96689.72;5059761;28;20200;-73
2021/04/17 04:57:09;;;;;;;36.33;15.13;;;;;;;0.62;100.00;96691.16;5059075;28;20747;-70
2021/04/17 04:59:35;;;;;;;35.20;14.93;;;;;;;0.63;100.00;96691.97;5058732;28;20205;-72
2021/04/17 05:02:01;;;;;;;36.90;15.50;;;;;;;0.70;100.00;96695.78;5059224;28;20601;-71
2021/04/17 05:04:27;;;;;;;36.43;15.17;;;;;;;0.75;100.00;96693.69;5059832;28;20195;-72
2021/04/17 05:06:54;;;;;;;34.03;14.73;;;;;;;0.83;100.00;96681.84;5058828;28;20220;-70
2021/04/17 05:09:20;;;;;;;35.03;15.53;;;;;;;0.94;100.00;96687.13;5059355;28;20936;-74
2021/04/17 05:11:46;;;;;;;38.37;16.00;;;;;;;1.02;100.00;96683.97;5058918;28;20208;-73
2021/04/17 05:14:12;;;;;;;35.07;14.83;;;;;;;0.92;100.00;96682.97;5059433;28;20276;-71
2021/04/17 05:16:39;;;;;;;31.23;14.40;;;;;;;0.95;100.00;96683.56;5058619;28;20703;-71
2021/04/17 05:19:05;;;;;;;32.93;14.77;;;;;;;0.90;100.00;96690.03;5059457;28;20208;-72
2021/04/17 05:21:31;;;;;;;32.70;14.70;;;;;;;0.94;100.00;96688.88;5059151;28;20272;-71
2021/04/17 05:23:57;;;;;;;38.43;16.50;;;;;;;0.98;100.00;96690.31;5059912;28;20689;-71
2021/04/17 05:26:24;;;;;;;37.27;16.37;;;;;;;1.14;100.00;96694.31;5058722;28;20337;-75
2021/04/17 05:28:50;;;;;;;36.77;16.90;;;;;;;1.17;100.00;96699.28;5058896;28;20203;-72
2021/04/17 05:31:16;;;;;;;37.60;16.10;;;;;;;1.40;100.00;96695.84;5058946;28;20302;-75
2021/04/17 05:33:42;;;;;;;34.60;15.83;;;;;;;1.43;100.00;96696.47;5059582;28;20302;-71
2021/04/17 05:36:08;;;;;;;39.43;16.17;;;;;;;1.54;100.00;96693.94;5058732;28;20598;-73
2021/04/17 05:38:34;;;;;;;37.63;16.73;;;;;;;1.51;100.00;96693.31;5057738;28;20204;-74
2021/04/17 05:41:00;;;;;;;34.47;15.77;;;;;;;1.46;100.00;96687.63;5056883;28;20226;-71
2021/04/17 05:43:27;;;;;;;33.93;16.33;;;;;;;1.55;100.00;96689.56;5057987;28;20207;-71
2021/04/17 05:45:53;;;;;;;35.90;16.60;;;;;;;1.55;100.00;96695.56;5057831;28;20211;-74
2021/04/17 05:48:19;;;;;;;33.90;16.43;;;;;;;1.58;100.00;96697.97;5058108;28;20925;-70
2021/04/17 05:50:45;;;;;;;36.70;16.20;;;;;;;1.76;100.00;96699.22;5059328;28;20295;-72
2021/04/17 05:53:11;;;;;;;40.23;16.67;;;;;;;1.85;100.00;96691.56;5058483;28;20243;-71
2021/04/17 05:55:39;;;;;;;39.27;17.20;;;;;;;1.82;100.00;96689.19;5058484;28;20204;-71
2021/04/17 05:58:05;;;;;;;42.67;18.47;;;;;;;1.77;100.00;96693.06;5057930;28;20232;-71
2021/04/17 06:00:32;;;;;;;42.50;18.93;;;;;;;1.83;100.00;96690.00;5058795;28;20200;-71
2021/04/17 06:02:58;;;;;;;44.73;19.60;;;;;;;1.88;100.00;96695.69;5057640;28;20368;-70
2021/04/17 06:05:24;;;;;;;41.17;19.73;;;;;;;1.89;100.00;96700.78;5058138;28;20204;-70
2021/04/17 06:07:50;;;;;;;40.67;18.23;;;;;;;2.03;100.00;96699.75;5058532;28;20236;-71
2021/04/17 06:10:16;;;;;;;40.50;17.50;;;;;;;2.04;100.00;96698.81;5057275;28;20291;-69
2021/04/17 06:12:42;;;;;;;38.10;17.23;;;;;;;2.00;100.00;96697.41;5057431;28;20345;-70
2021/04/17 06:15:10;;;;;;;36.80;16.40;;;;;;;2.05;100.00;96700.47;5057802;28;20214;-73
2021/04/17 06:17:36;;;;;;;39.20;16.87;;;;;;;2.11;100.00;96697.41;5057915;28;20220;-72
2021/04/17 06:20:04;;;;;;;38.93;17.13;;;;;;;2.21;100.00;96691.41;5057213;28;20205;-74
2021/04/17 06:22:30;;;;;;;36.80;16.27;;;;;;;2.25;100.00;96703.22;5058230;28;20288;-70
2021/04/17 06:24:56;;;;;;;40.10;17.07;;;;;;;2.35;100.00;96695.56;5058746;28;20235;-71
2021/04/17 06:27:22;;;;;;;37.93;17.17;;;;;;;2.42;100.00;96701.00;5056896;28;21011;-72
2021/04/17 06:29:48;;;;;;;43.13;19.03;;;;;;;2.40;100.00;96696.06;5057308;28;20218;-71
2021/04/17 06:32:14;;;;;;;43.00;19.00;;;;;;;2.55;100.00;96695.69;5057350;28;20216;-70
2021/04/17 06:34:41;;;;;;;42.30;18.23;;;;;;;2.56;100.00;96697.38;5055328;28;20634;-74
2021/04/17 06:37:07;;;;;;;44.13;19.57;;;;;;;2.68;100.00;96699.00;5055299;28;20235;-74
2021/04/17 06:39:33;;;;;;;44.57;19.23;;;;;;;2.73;100.00;96699.50;5056442;28;20214;-71
2021/04/17 06:42:01;;;;;;;44.23;19.93;;;;;;;2.83;100.00;96696.03;5056671;28;20224;-74
2021/04/17 06:44:28;;;;;;;46.07;20.37;;;;;;;2.84;100.00;96699.47;5056756;28;20212;-73
2021/04/17 06:46:54;;;;;;;42.60;19.43;;;;;;;2.96;100.00;96694.13;5056760;28;20223;-71
2021/04/17 06:49:21;;;;;;;47.03;19.97;;;;;;;3.18;100.00;96696.69;5056911;28;20572;-70
2021/04/17 06:51:49;;;;;;;46.07;20.17;;;;;;;3.34;100.00;96689.34;5057069;28;20209;-70
2021/04/17 06:54:19;;;;;;;48.53;21.77;;;;;;;3.41;100.00;96693.09;5057249;28;20208;-73
2021/04/17 06:56:48;;;;;;;44.73;20.13;;;;;;;3.42;100.00;96689.56;5056493;28;20266;-72
2021/04/17 06:59:15;;;;;;;47.33;21.20;;;;;;;3.54;100.00;96691.16;5056088;28;20208;-71
2021/04/17 07:01:41;;;;;;;45.37;20.67;;;;;;;3.58;100.00;96689.97;5057206;28;20227;-70
2021/04/17 07:04:08;;;;;;;47.07;21.87;;;;;;;3.48;100.00;96694.28;5056961;28;20208;-70
2021/04/17 07:06:34;;;;;;;49.97;22.23;;;;;;;3.67;100.00;96690.06;5055916;28;20221;-70
2021/04/17 07:09:01;;;;;;;48.67;22.77;;;;;;;3.77;100.00;96686.56;5056806;28;20211;-71
2021/04/17 07:11:27;;;;;;;50.43;22.07;;;;;;;3.91;100.00;96688.06;5056638;28;20272;-70
2021/04/17 07:14:13;;;;;;;47.00;21.97;;;;;;;4.03;100.00;96687.84;5056518;28;20207;-74
2021/04/17 07:16:56;;;;;;;49.17;21.87;;;;;;;4.00;100.00;96695.94;5055884;28;20224;-73
2021/04/17 07:19:22;;;;;;;49.10;21.90;;;;;;;4.09;100.00;96684.75;5056866;28;20281;-74
2021/04/17 07:21:48;;;;;;;47.60;21.03;;;;;;;4.12;100.00;96687.09;5057175;28;20242;-72
2021/04/17 07:24:25;;;;;;;49.90;22.17;;;;;;;4.30;100.00;96686.41;5056554;28;20205;-72
2021/04/17 07:26:51;;;;;;;48.27;22.03;;;;;;;4.43;100.00;96683.56;5055671;28;20220;-70
2021/04/17 07:29:17;;;;;;;50.77;21.77;;;;;;;4.54;100.00;96678.28;5058046;28;20200;-73
2021/04/17 07:31:54;;;;;;;49.73;22.40;;;;;;;4.48;100.00;96677.03;5056540;28;20188;-71
2021/04/17 07:34:24;;;;;;;48.60;20.60;;;;;;;4.48;100.00;96678.78;5056356;28;20204;-72
2021/04/17 07:36:53;;;;;;;48.63;21.80;;;;;;;4.52;100.00;96673.22;5055970;28;20263;-70
2021/04/17 07:39:28;;;;;;;48.50;22.23;;;;;;;4.83;100.00;96683.50;5056661;28;20215;-72
2021/04/17 07:41:58;;;;;;;47.20;22.07;;;;;;;5.00;100.00;96680.28;5055993;28;20227;-71
2021/04/17 07:44:31;;;;;;;48.93;21.53;;;;;;;5.16;100.00;96683.19;5057240;28;20213;-70
2021/04/17 07:46:57;;;;;;;49.87;20.90;;;;;;;5.07;100.00;96684.00;5055596;28;20255;-74
2021/04/17 07:49:23;;;;;;;46.87;20.67;;;;;;;5.11;100.00;96682.78;5056985;28;20204;-74
2021/04/17 07:51:57;;;;;;;47.10;21.23;;;;;;;5.16;100.00;96682.38;5056235;28;20207;-72
2021/04/17 07:54:23;;;;;;;48.57;20.50;;;;;;;5.29;100.00;96683.78;5056608;28;20211;-73
2021/04/17 07:56:50;;;;;;;49.07;21.87;;;;;;;5.39;100.00;96687.25;5054935;28;20788;-74
2021/04/17 07:59:20;;;;;;;49.50;20.83;;;;;;;5.42;100.00;96686.16;5056878;28;20294;-70
2021/04/17 08:01:48;;;;;;;44.27;19.97;;;;;;;5.45;100.00;96686.72;5056776;28;20227;-71
2021/04/17 08:04:22;;;;;;;47.27;21.43;;;;;;;5.63;100.00;96679.84;5056500;28;20212;-70
2021/04/17 08:06:48;;;;;;;43.43;20.53;;;;;;;5.68;99.28;96681.09;5055397;28;20228;-70
2021/04/17 08:09:14;;;;;;;47.40;21.03;;;;;;;5.62;100.00;96680.81;5055961;28;20209;-75
2021/04/17 08:11:41;;;;;;;47.13;20.63;;;;;;;5.57;100.00;96680.38;5055649;28;20230;-73
2021/04/17 08:14:09;;;;;;;47.53;22.00;;;;;;;5.75;100.00;96678.75;5056342;28;20258;-72
2021/04/17 08:16:36;;;;;;;42.73;21.20;;;;;;;5.85;100.00;96674.38;5055311;28;20224;-70
2021/04/17 08:19:02;;;;;;;46.77;21.50;;;;;;;5.99;99.50;96671.34;5056394;28;20215;-73
2021/04/17 08:21:29;;;;;;;44.23;20.90;;;;;;;6.03;98.81;96672.72;5055846;28;20586;-72
2021/04/17 08:23:56;;;;;;;41.40;20.33;;;;;;;5.99;100.00;96666.94;5055995;28;20209;-70
2021/04/17 08:26:22;;;;;;;44.60;21.43;;;;;;;6.07;100.00;96661.84;5058133;28;20228;-70
2021/04/17 08:28:50;;;;;;;44.70;21.70;;;;;;;6.25;100.00;96665.38;5062472;28;20227;-73
2021/04/17 08:31:30;;;;;;;40.30;19.93;;;;;;;6.28;99.41;96660.69;5063213;28;20211;-69
2021/04/17 08:34:17;;;;;;;44.83;20.70;;;;;;;6.37;100.00;96659.84;5063355;28;20204;-70
2021/04/17 08:36:47;;;;;;;42.03;19.80;;;;;;;6.31;100.00;96663.06;5061155;28;20220;-71
2021/04/17 08:39:43;;;;;;;44.50;21.37;;;;;;;6.49;98.33;96652.66;5062280;28;20204;-70
2021/04/17 08:42:12;;;;;;;42.00;19.73;;;;;;;6.70;100.00;96649.69;5062943;28;20262;-71
2021/04/17 08:44:40;;;;;;;38.83;18.63;;;;;;;6.78;95.02;96651.59;5062386;28;20196;-70
2021/04/17 08:47:08;;;;;;;39.13;18.57;;;;;;;6.71;94.94;96643.50;5061483;28;20224;-72
2021/04/17 08:49:36;;;;;;;39.73;18.63;;;;;;;6.76;97.60;96645.69;5063146;28;20200;-74
2021/04/17 08:52:21;;;;;;;39.03;19.03;;;;;;;6.70;94.57;96638.41;5062531;28;20208;-71
2021/04/17 08:55:11;;;;;;;35.23;17.87;;;;;;;7.07;90.43;96633.97;5062620;28;20239;-69
2021/04/17 08:57:37;;;;;;;36.93;18.13;;;;;;;6.99;88.28;96642.53;5061884;28;20727;-70
2021/04/17 09:00:06;;;;;;;33.40;17.13;;;;;;;7.26;86.38;96642.53;5062108;28;20208;-74
2021/04/17 09:02:44;;;;;;;34.03;17.10;;;;;;;7.01;87.48;96640.59;5062167;28;20395;-74
2021/04/17 09:05:13;;;;;;;33.60;17.07;;;;;;;6.74;88.94;96643.19;5062345;28;20215;-70
2021/04/17 09:07:44;;;;;;;34.07;16.70;;;;;;;7.36;86.41;96641.50;5061727;28;20256;-73
2021/04/17 09:10:31;;;;;;;31.33;16.10;;;;;;;7.61;85.73;96638.16;5061562;28;20702;-74
2021/04/17 09:13:34;;;;;;;33.13;15.90;;;;;;;7.46;87.34;96639.66;5062529;28;20291;-71
2021/04/17 09:16:02;;;;;;;34.03;15.77;;;;;;;7.54;83.56;96631.84;4960041;28;20203;-72
2021/04/17 09:18:43;;;;;;;33.37;16.73;;;;;;;7.76;88.23;96618.28;5043198;28;20299;-73
2021/04/17 09:21:32;;;;;;;32.87;16.50;;;;;;;7.49;86.03;96622.78;5063000;28;20214;-70
2021/04/17 09:23:58;;;;;;;29.77;15.17;;;;;;;7.27;85.96;96626.66;5062369;28;20572;-70
2021/04/17 09:26:36;;;;;;;26.90;14.13;;;;;;;7.30;84.05;96633.41;5061775;28;20224;-70
2021/04/17 09:29:08;;;;;;;30.27;15.77;;;;;;;7.38;87.18;96626.47;5062115;28;20204;-72
2021/04/17 09:31:36;;;;;;;31.50;15.67;;;;;;;7.00;90.21;96625.03;5062605;28;20200;-73
2021/04/17 09:34:04;;;;;;;27.20;14.23;;;;;;;7.16;90.28;96620.78;5061651;28;20204;-70
2021/04/17 09:36:31;;;;;;;27.27;14.37;;;;;;;7.51;82.97;96615.59;5061455;28;20220;-74
2021/04/17 09:38:58;;;;;;;29.77;15.40;;;;;;;7.51;84.50;96626.91;5058085;28;20266;-70
2021/04/17 09:41:24;;;;;;;31.37;15.43;;;;;;;7.47;86.93;96620.31;5058352;28;20235;-70
2021/04/17 09:43:55;;;;;;;27.17;13.83;;;;;;;7.58;84.72;96614.03;5058443;28;20207;-70
2021/04/17 09:46:22;;;;;;;27.40;12.90;;;;;;;7.80;80.09;96619.63;5058341;28;20749;-71
2021/04/17 09:48:48;;;;;;;27.60;13.13;;;;;;;7.89;79.42;96614.31;5058702;28;20295;-72
2021/04/17 09:51:19;;;;;;;27.07;12.93;;;;;;;7.88;80.70;96614.47;5058712;28;20679;-69
2021/04/17 09:53:45;;;;;;;26.80;12.73;;;;;;;7.73;81.51;96612.53;5058752;28;20201;-73
2021/04/17 09:56:12;;;;;;;22.13;10.67;;;;;;;7.76;76.16;96610.41;5058277;28;20224;-72
2021/04/17 09:58:42;;;;;;;22.93;11.60;;;;;;;7.86;77.24;96605.91;5058196;28;20594;-73
2021/04/17 10:01:11;;;;;;;24.47;13.03;;;;;;;7.83;76.19;96598.38;5058215;28;20216;-73
2021/04/17 10:03:39;;;;;;;25.87;13.40;;;;;;;8.30;77.75;96597.09;5058342;28;20201;-71
2021/04/17 10:06:23;;;;;;;27.07;13.40;;;;;;;8.31;76.44;96594.31;5058526;28;20233;-69
2021/04/17 10:08:50;;;;;;;23.97;12.70;;;;;;;8.06;75.47;96597.72;5057667;28;20211;-71
2021/04/17 10:11:20;;;;;;;23.70;13.27;;;;;;;7.86;79.08;96592.00;5058401;28;20209;-74
2021/04/17 10:13:47;;;;;;;23.33;13.03;;;;;;;7.60;79.63;96601.56;5058105;28;20613;-70
2021/04/17 10:16:14;;;;;;;25.70;13.70;;;;;;;7.25;80.90;96598.13;5057828;28;20736;-70
2021/04/17 10:18:43;;;;;;;24.33;13.17;;;;;;;7.10;81.11;96595.16;5058846;28;20250;-73
2021/04/17 10:21:11;;;;;;;23.27;12.43;;;;;;;7.07;82.21;96598.09;5058358;28;20230;-70
2021/04/17 10:23:38;;;;;;;25.03;12.40;;;;;;;6.98;78.22;96592.91;5057791;28;20208;-69
2021/04/17 10:26:06;;;;;;;27.10;12.60;;;;;;;6.76;82.76;96594.13;5057518;28;20232;-70
2021/04/17 10:28:33;;;;;;;23.33;12.43;;;;;;;6.79;81.40;96591.22;5058657;28;20208;-73
2021/04/17 10:31:01;;;;;;;24.17;12.67;;;;;;;6.69;82.48;96587.00;5057528;28;20207;-72
2021/04/17 10:33:29;;;;;;;22.17;11.83;;;;;;;6.79;80.17;96587.78;5057996;28;20311;-73
2021/04/17 10:35:57;;;;;;;22.80;12.17;;;;;;;6.76;79.74;96588.91;5057228;28;20210;-70
2021/04/17 10:38:25;;;;;;;25.60;12.70;;;;;;;6.76;80.97;96583.66;5057614;28;20200;-71
2021/04/17 10:40:52;;;;;;;23.57;12.70;;;;;;;6.98;79.63;96585.88;5057143;28;20334;-70
2021/04/17 10:43:19;;;;;;;21.97;12.17;;;;;;;7.20;79.12;96582.03;5058305;28;20232;-71
2021/04/17 10:45:46;;;;;;;27.50;12.80;;;;;;;7.27;77.43;96574.22;5056406;28;20204;-71
2021/04/17 10:48:17;;;;;;;21.77;11.30;;;;;;;7.53;77.14;96574.31;5057451;28;20258;-73
2021/04/17 10:50:52;;;;;;;21.83;11.50;;;;;;;7.63;76.96;96570.63;5057644;28;20235;-71
2021/04/17 10:53:24;;;;;;;23.87;12.27;;;;;;;7.79;75.86;96573.41;5057771;28;20208;-72
2021/04/17 10:55:53;;;;;;;21.27;12.07;;;;;;;7.83;77.31;96566.88;5056808;28;20204;-70
2021/04/17 10:58:25;;;;;;;21.47;11.53;;;;;;;7.94;77.17;96556.97;5057787;28;20204;-71
2021/04/17 11:00:55;;;;;;;21.30;11.80;;;;;;;7.79;77.24;96555.03;5056961;28;20209;-71
2021/04/17 11:03:21;;;;;;;20.93;11.20;;;;;;;7.72;75.59;96559.22;5057521;28;20246;-72
2021/04/17 11:05:46;;;;;;;19.73;10.10;;;;;;;7.87;74.23;96557.72;5057744;28;20212;-70
2021/04/17 11:08:20;;;;;;;19.03;10.53;;;;;;;7.92;75.34;96551.03;5056852;28;20208;-70
2021/04/17 11:10:46;;;;;;;20.93;10.63;;;;;;;8.08;72.87;96545.06;5056969;28;20208;-74
2021/04/17 11:13:27;;;;;;;20.10;10.30;;;;;;;8.01;75.50;96549.31;5057953;28;20274;-73
2021/04/17 11:15:53;;;;;;;20.60;9.63;;;;;;;8.31;73.17;96541.81;5056664;28;20204;-70
2021/04/17 11:18:20;;;;;;;17.23;9.87;;;;;;;8.51;71.41;96543.22;5057568;28;20722;-71
2021/04/17 11:20:57;;;;;;;16.23;9.20;;;;;;;8.34;68.31;96532.78;5056981;28;20250;-71
2021/04/17 11:23:39;;;;;;;20.53;10.27;;;;;;;8.48;69.44;96526.94;5057611;28;21094;-75